CheckWX is a tool to help pilots better visualize weather data.  It is not intended as a substitute for an official pre-flight weather briefing.

05:52:15 UTC

EBBR METAR
Brussels Airport
Brussels, Belgium
Current

32 mins ago

EBBR 250520Z 31012KT 280V340 9999 -SHRA SCT010TCU BKN024 06/03 Q1023 BECMG NSW
Observed
Mar-25 @ 05:20 UTC
Wind
  • 310° at 12 KTS
Visibility
10,000+ meters
Flight Rules
MVFR
Conditions
Light Rain
Cloud Levels
  • Scattered at 1,000' AGL
  • Broken at 2,400' AGL
Temperature
C / 43°F
Dewpoint
C / 37°F
Humidity
81%
Altimeter
30.21" Hg
Pressure
1022.92 hPa
Previous

1 hour ago

EBBR 250450Z 29009KT 9999 FEW030 06/03 Q1023 TEMPO 4500 SHRA BKN012
Observed
Mar-25 @ 04:50 UTC
Wind
  • 290° at 9 KTS
Visibility
10,000+ meters
Flight Rules
VFR
Cloud Levels
  • Few at 3,000' AGL
Temperature
C / 43°F
Dewpoint
C / 37°F
Humidity
81%
Altimeter
30.21" Hg
Pressure
1022.92 hPa
Previous

2 hours ago

EBBR 250420Z 28010KT 9999 FEW030 06/03 Q1023 TEMPO 4500 SHRA BKN012
Observed
Mar-25 @ 04:20 UTC
Wind
  • 280° at 10 KTS
Visibility
10,000+ meters
Flight Rules
VFR
Cloud Levels
  • Few at 3,000' AGL
Temperature
C / 43°F
Dewpoint
C / 37°F
Humidity
81%
Altimeter
30.21" Hg
Pressure
1022.92 hPa